POGODA: Poland

Lotnisko: Wroclaw Ii

METAR KOD: EPWR


METAR: EPWR 240000Z 05005KT 020V080 6000 +SHRA BKN045CB 17/15 Q1015


BLOK
Pogoda METAR
240000Z
Dzien: 24, Godzina: 00:00 UTC.
05005KT
Wiatr z kierunku 050, o predkosci 9 km/h
020V080
Wiatr zmienny pomiedzy 020 i 080
6000
Widzialnosc pozioma 6000 m.
+SHRA
sil. opady przelotne deszcz
BKN045CB
5/8 - 7/8 pokrycia nieba, chmurami o podstawie: 1350 metrow, cumulonimbus
17/15
Temperatura: powietrze 17°C, punkt rosy 15°C . Wilgotnosc wzgledna 88 %
Q1015
Cisnienie: 1015 hPa

Pogoda na innym lotnisku

Pogoda Gdansk-Rebiechowo WEATHER Poland  
Pogoda Katowice WEATHER Poland  
Pogoda Krakow WEATHER Poland  
Pogoda Poznan WEATHER Poland  
Pogoda Rzeszow-Jasionka WEATHER Poland  
Pogoda Szczecin WEATHER Poland  
Pogoda Warszawa-Okecie WEATHER Poland  
Pogoda Wroclaw Ii WEATHER Poland  

Pogoda w inny kraju

Strona startowa

(C) by GREGOR 2007
Ogłoszenia Towarzyskie